sensor_id;sensor_type;location;lat;lon;timestamp;P1;durP1;ratioP1;P2;durP2;ratioP2
4450;SDS011;2238;50.180;9.230;2022-07-30T00:01:02;6.03;;;5.50;;
4450;SDS011;2238;50.180;9.230;2022-07-30T00:04:03;6.33;;;5.83;;
4450;SDS011;2238;50.180;9.230;2022-07-30T00:07:03;6.73;;;6.23;;
4450;SDS011;2238;50.180;9.230;2022-07-30T00:10:04;8.70;;;7.97;;
4450;SDS011;2238;50.180;9.230;2022-07-30T00:13:06;9.17;;;8.20;;
4450;SDS011;2238;50.180;9.230;2022-07-30T00:16:06;9.60;;;8.80;;
4450;SDS011;2238;50.180;9.230;2022-07-30T00:19:07;9.10;;;8.33;;
4450;SDS011;2238;50.180;9.230;2022-07-30T00:22:08;9.37;;;8.60;;
4450;SDS011;2238;50.180;9.230;2022-07-30T00:25:09;8.33;;;7.50;;
4450;SDS011;2238;50.180;9.230;2022-07-30T00:28:10;8.27;;;7.57;;
4450;SDS011;2238;50.180;9.230;2022-07-30T00:31:10;8.27;;;7.50;;
4450;SDS011;2238;50.180;9.230;2022-07-30T00:34:11;10.30;;;7.17;;
4450;SDS011;2238;50.180;9.230;2022-07-30T00:37:12;8.50;;;7.80;;
4450;SDS011;2238;50.180;9.230;2022-07-30T00:40:12;7.73;;;7.13;;
4450;SDS011;2238;50.180;9.230;2022-07-30T00:43:14;7.87;;;7.27;;
4450;SDS011;2238;50.180;9.230;2022-07-30T00:46:15;7.90;;;7.17;;
4450;SDS011;2238;50.180;9.230;2022-07-30T00:49:16;7.47;;;6.77;;
4450;SDS011;2238;50.180;9.230;2022-07-30T00:52:16;7.77;;;7.17;;
4450;SDS011;2238;50.180;9.230;2022-07-30T00:55:17;9.13;;;6.80;;
4450;SDS011;2238;50.180;9.230;2022-07-30T00:58:18;7.87;;;7.27;;
4450;SDS011;2238;50.180;9.230;2022-07-30T01:01:18;7.97;;;7.30;;
4450;SDS011;2238;50.180;9.230;2022-07-30T01:04:20;7.30;;;6.63;;
4450;SDS011;2238;50.180;9.230;2022-07-30T01:07:20;7.50;;;6.90;;
4450;SDS011;2238;50.180;9.230;2022-07-30T01:10:21;7.10;;;6.60;;
4450;SDS011;2238;50.180;9.230;2022-07-30T01:13:22;6.90;;;6.30;;
4450;SDS011;2238;50.180;9.230;2022-07-30T01:16:22;7.40;;;6.73;;
4450;SDS011;2238;50.180;9.230;2022-07-30T01:19:24;7.30;;;6.63;;
4450;SDS011;2238;50.180;9.230;2022-07-30T01:22:59;7.20;;;5.97;;
4450;SDS011;2238;50.180;9.230;2022-07-30T01:26:03;7.17;;;6.60;;
4450;SDS011;2238;50.180;9.230;2022-07-30T01:29:07;7.20;;;6.60;;
4450;SDS011;2238;50.180;9.230;2022-07-30T01:32:09;7.97;;;7.30;;
4450;SDS011;2238;50.180;9.230;2022-07-30T01:35:10;6.33;;;5.83;;
4450;SDS011;2238;50.180;9.230;2022-07-30T01:38:13;6.87;;;6.27;;
4450;SDS011;2238;50.180;9.230;2022-07-30T01:41:16;6.43;;;5.97;;
4450;SDS011;2238;50.180;9.230;2022-07-30T01:44:18;6.83;;;6.23;;
4450;SDS011;2238;50.180;9.230;2022-07-30T01:47:20;6.30;;;5.80;;
4450;SDS011;2238;50.180;9.230;2022-07-30T01:50:21;5.93;;;5.53;;
4450;SDS011;2238;50.180;9.230;2022-07-30T01:53:23;6.53;;;5.93;;
4450;SDS011;2238;50.180;9.230;2022-07-30T01:56:26;6.60;;;6.10;;
4450;SDS011;2238;50.180;9.230;2022-07-30T01:59:29;7.20;;;6.50;;
4450;SDS011;2238;50.180;9.230;2022-07-30T02:02:34;7.30;;;6.70;;
4450;SDS011;2238;50.180;9.230;2022-07-30T02:05:36;7.63;;;7.03;;
4450;SDS011;2238;50.180;9.230;2022-07-30T02:08:38;8.30;;;7.60;;
4450;SDS011;2238;50.180;9.230;2022-07-30T02:11:43;6.93;;;6.43;;
4450;SDS011;2238;50.180;9.230;2022-07-30T02:15:09;7.17;;;6.57;;
4450;SDS011;2238;50.180;9.230;2022-07-30T02:18:19;6.53;;;6.03;;
4450;SDS011;2238;50.180;9.230;2022-07-30T02:21:30;7.33;;;6.73;;
4450;SDS011;2238;50.180;9.230;2022-07-30T02:24:35;8.50;;;7.73;;
4450;SDS011;2238;50.180;9.230;2022-07-30T02:27:37;7.40;;;6.73;;
4450;SDS011;2238;50.180;9.230;2022-07-30T02:30:46;7.00;;;6.13;;
4450;SDS011;2238;50.180;9.230;2022-07-30T02:33:52;7.50;;;6.90;;
4450;SDS011;2238;50.180;9.230;2022-07-30T02:36:56;7.00;;;6.50;;
4450;SDS011;2238;50.180;9.230;2022-07-30T02:39:58;7.27;;;6.67;;
4450;SDS011;2238;50.180;9.230;2022-07-30T02:42:59;8.10;;;7.10;;
4450;SDS011;2238;50.180;9.230;2022-07-30T02:46:00;7.70;;;7.10;;
4450;SDS011;2238;50.180;9.230;2022-07-30T02:49:01;6.90;;;6.30;;
4450;SDS011;2238;50.180;9.230;2022-07-30T02:52:04;7.57;;;6.97;;
4450;SDS011;2238;50.180;9.230;2022-07-30T02:55:08;8.00;;;7.30;;
4450;SDS011;2238;50.180;9.230;2022-07-30T02:58:11;8.17;;;7.57;;
4450;SDS011;2238;50.180;9.230;2022-07-30T03:01:17;7.63;;;6.97;;
4450;SDS011;2238;50.180;9.230;2022-07-30T03:04:20;7.43;;;6.83;;
4450;SDS011;2238;50.180;9.230;2022-07-30T03:07:22;7.10;;;6.50;;
4450;SDS011;2238;50.180;9.230;2022-07-30T03:10:24;7.33;;;6.63;;
4450;SDS011;2238;50.180;9.230;2022-07-30T03:13:26;9.20;;;8.37;;
4450;SDS011;2238;50.180;9.230;2022-07-30T03:16:26;8.97;;;7.67;;
4450;SDS011;2238;50.180;9.230;2022-07-30T03:19:30;9.20;;;8.40;;
4450;SDS011;2238;50.180;9.230;2022-07-30T03:22:33;9.63;;;8.80;;
4450;SDS011;2238;50.180;9.230;2022-07-30T03:25:37;10.87;;;9.40;;
4450;SDS011;2238;50.180;9.230;2022-07-30T03:28:39;8.57;;;7.83;;
4450;SDS011;2238;50.180;9.230;2022-07-30T03:31:42;9.00;;;8.10;;
4450;SDS011;2238;50.180;9.230;2022-07-30T03:34:44;8.63;;;7.90;;
4450;SDS011;2238;50.180;9.230;2022-07-30T03:37:46;8.03;;;7.20;;
4450;SDS011;2238;50.180;9.230;2022-07-30T03:40:47;6.53;;;6.03;;
4450;SDS011;2238;50.180;9.230;2022-07-30T03:43:48;7.23;;;6.67;;
4450;SDS011;2238;50.180;9.230;2022-07-30T03:46:49;7.30;;;6.80;;
4450;SDS011;2238;50.180;9.230;2022-07-30T03:49:52;8.77;;;7.97;;
4450;SDS011;2238;50.180;9.230;2022-07-30T03:52:53;9.20;;;8.50;;
4450;SDS011;2238;50.180;9.230;2022-07-30T03:55:54;10.03;;;9.23;;
4450;SDS011;2238;50.180;9.230;2022-07-30T03:58:55;11.20;;;10.20;;
4450;SDS011;2238;50.180;9.230;2022-07-30T04:01:59;10.97;;;9.73;;
4450;SDS011;2238;50.180;9.230;2022-07-30T04:05:01;10.57;;;9.60;;
4450;SDS011;2238;50.180;9.230;2022-07-30T04:08:02;10.67;;;9.67;;
4450;SDS011;2238;50.180;9.230;2022-07-30T04:11:03;10.20;;;9.30;;
4450;SDS011;2238;50.180;9.230;2022-07-30T04:14:04;12.20;;;11.10;;
4450;SDS011;2238;50.180;9.230;2022-07-30T04:17:07;10.27;;;9.37;;
4450;SDS011;2238;50.180;9.230;2022-07-30T04:20:21;11.77;;;10.67;;
4450;SDS011;2238;50.180;9.230;2022-07-30T04:23:23;10.77;;;9.87;;
4450;SDS011;2238;50.180;9.230;2022-07-30T04:26:24;11.93;;;9.37;;
4450;SDS011;2238;50.180;9.230;2022-07-30T04:29:25;9.13;;;8.40;;
4450;SDS011;2238;50.180;9.230;2022-07-30T04:32:26;8.63;;;7.90;;
4450;SDS011;2238;50.180;9.230;2022-07-30T04:35:28;9.40;;;8.60;;
4450;SDS011;2238;50.180;9.230;2022-07-30T04:38:30;9.23;;;8.43;;
4450;SDS011;2238;50.180;9.230;2022-07-30T04:41:31;8.97;;;8.27;;
4450;SDS011;2238;50.180;9.230;2022-07-30T04:44:32;8.40;;;7.80;;
4450;SDS011;2238;50.180;9.230;2022-07-30T04:47:33;8.67;;;7.97;;
4450;SDS011;2238;50.180;9.230;2022-07-30T04:50:34;7.90;;;7.30;;
4450;SDS011;2238;50.180;9.230;2022-07-30T04:53:37;6.60;;;6.13;;
4450;SDS011;2238;50.180;9.230;2022-07-30T04:56:40;5.47;;;5.07;;
4450;SDS011;2238;50.180;9.230;2022-07-30T04:59:42;5.83;;;5.43;;
4450;SDS011;2238;50.180;9.230;2022-07-30T05:02:43;6.97;;;6.47;;
4450;SDS011;2238;50.180;9.230;2022-07-30T05:05:46;6.17;;;5.70;;
4450;SDS011;2238;50.180;9.230;2022-07-30T05:08:47;6.60;;;6.10;;
4450;SDS011;2238;50.180;9.230;2022-07-30T05:11:49;7.13;;;6.63;;
4450;SDS011;2238;50.180;9.230;2022-07-30T05:14:50;7.43;;;6.83;;
4450;SDS011;2238;50.180;9.230;2022-07-30T05:17:51;9.40;;;8.60;;
4450;SDS011;2238;50.180;9.230;2022-07-30T05:20:51;8.60;;;7.90;;
4450;SDS011;2238;50.180;9.230;2022-07-30T05:23:52;9.70;;;8.90;;
4450;SDS011;2238;50.180;9.230;2022-07-30T05:26:52;10.77;;;9.73;;
4450;SDS011;2238;50.180;9.230;2022-07-30T05:29:53;10.50;;;9.60;;
4450;SDS011;2238;50.180;9.230;2022-07-30T05:32:54;12.00;;;10.77;;
4450;SDS011;2238;50.180;9.230;2022-07-30T05:35:54;12.77;;;11.63;;
4450;SDS011;2238;50.180;9.230;2022-07-30T05:38:56;12.17;;;11.03;;
4450;SDS011;2238;50.180;9.230;2022-07-30T05:41:57;11.60;;;10.50;;
4450;SDS011;2238;50.180;9.230;2022-07-30T05:44:57;10.80;;;9.80;;
4450;SDS011;2238;50.180;9.230;2022-07-30T05:47:59;11.67;;;10.63;;
4450;SDS011;2238;50.180;9.230;2022-07-30T05:51:00;11.20;;;10.20;;
4450;SDS011;2238;50.180;9.230;2022-07-30T05:54:01;11.60;;;10.60;;
4450;SDS011;2238;50.180;9.230;2022-07-30T05:57:01;11.47;;;10.57;;
4450;SDS011;2238;50.180;9.230;2022-07-30T06:00:05;13.00;;;11.80;;
4450;SDS011;2238;50.180;9.230;2022-07-30T06:03:08;13.90;;;12.70;;
4450;SDS011;2238;50.180;9.230;2022-07-30T06:06:08;12.83;;;11.63;;
4450;SDS011;2238;50.180;9.230;2022-07-30T06:09:09;14.10;;;12.70;;
4450;SDS011;2238;50.180;9.230;2022-07-30T06:12:09;13.97;;;12.67;;
4450;SDS011;2238;50.180;9.230;2022-07-30T06:15:10;16.30;;;14.70;;
4450;SDS011;2238;50.180;9.230;2022-07-30T06:18:12;16.87;;;15.30;;
4450;SDS011;2238;50.180;9.230;2022-07-30T06:21:12;20.70;;;17.80;;
4450;SDS011;2238;50.180;9.230;2022-07-30T06:24:13;18.30;;;16.50;;
4450;SDS011;2238;50.180;9.230;2022-07-30T06:27:14;20.73;;;16.13;;
4450;SDS011;2238;50.180;9.230;2022-07-30T06:30:15;18.83;;;17.03;;
4450;SDS011;2238;50.180;9.230;2022-07-30T06:33:15;17.80;;;16.10;;
4450;SDS011;2238;50.180;9.230;2022-07-30T06:36:16;17.83;;;16.13;;
4450;SDS011;2238;50.180;9.230;2022-07-30T06:39:16;16.43;;;14.93;;
4450;SDS011;2238;50.180;9.230;2022-07-30T06:42:17;16.97;;;15.20;;
4450;SDS011;2238;50.180;9.230;2022-07-30T06:45:18;17.60;;;16.00;;
4450;SDS011;2238;50.180;9.230;2022-07-30T06:48:18;19.57;;;17.60;;
4450;SDS011;2238;50.180;9.230;2022-07-30T06:51:19;19.47;;;17.30;;
4450;SDS011;2238;50.180;9.230;2022-07-30T06:54:19;20.57;;;17.93;;
4450;SDS011;2238;50.180;9.230;2022-07-30T06:57:20;21.30;;;19.20;;
4450;SDS011;2238;50.180;9.230;2022-07-30T07:00:21;20.57;;;18.47;;
4450;SDS011;2238;50.180;9.230;2022-07-30T07:03:22;19.10;;;17.13;;
4450;SDS011;2238;50.180;9.230;2022-07-30T07:06:23;16.30;;;14.77;;
4450;SDS011;2238;50.180;9.230;2022-07-30T07:09:23;21.20;;;19.07;;
4450;SDS011;2238;50.180;9.230;2022-07-30T07:12:24;17.90;;;16.00;;
4450;SDS011;2238;50.180;9.230;2022-07-30T07:15:25;17.67;;;15.77;;
4450;SDS011;2238;50.180;9.230;2022-07-30T07:18:25;20.13;;;18.00;;
4450;SDS011;2238;50.180;9.230;2022-07-30T07:21:26;19.20;;;17.40;;
4450;SDS011;2238;50.180;9.230;2022-07-30T07:24:27;19.03;;;17.20;;
4450;SDS011;2238;50.180;9.230;2022-07-30T07:27:27;19.30;;;17.33;;
4450;SDS011;2238;50.180;9.230;2022-07-30T07:30:28;18.30;;;16.50;;
4450;SDS011;2238;50.180;9.230;2022-07-30T07:33:28;18.37;;;16.67;;
4450;SDS011;2238;50.180;9.230;2022-07-30T07:36:29;18.30;;;16.60;;
4450;SDS011;2238;50.180;9.230;2022-07-30T07:39:29;18.50;;;16.70;;
4450;SDS011;2238;50.180;9.230;2022-07-30T07:42:30;18.27;;;16.57;;
4450;SDS011;2238;50.180;9.230;2022-07-30T07:45:31;17.40;;;15.67;;
4450;SDS011;2238;50.180;9.230;2022-07-30T07:48:31;16.00;;;13.33;;
4450;SDS011;2238;50.180;9.230;2022-07-30T07:51:33;17.20;;;15.50;;
4450;SDS011;2238;50.180;9.230;2022-07-30T07:54:35;15.00;;;13.60;;
4450;SDS011;2238;50.180;9.230;2022-07-30T07:57:39;16.33;;;14.83;;
4450;SDS011;2238;50.180;9.230;2022-07-30T08:00:41;15.80;;;14.30;;
4450;SDS011;2238;50.180;9.230;2022-07-30T08:03:41;15.03;;;13.50;;
4450;SDS011;2238;50.180;9.230;2022-07-30T08:06:42;15.20;;;13.60;;
4450;SDS011;2238;50.180;9.230;2022-07-30T08:09:43;15.07;;;13.70;;
4450;SDS011;2238;50.180;9.230;2022-07-30T08:12:43;13.20;;;12.10;;
4450;SDS011;2238;50.180;9.230;2022-07-30T08:15:44;14.47;;;13.17;;
4450;SDS011;2238;50.180;9.230;2022-07-30T08:18:44;15.60;;;14.20;;
4450;SDS011;2238;50.180;9.230;2022-07-30T08:21:45;13.93;;;12.73;;
4450;SDS011;2238;50.180;9.230;2022-07-30T08:24:45;14.23;;;12.93;;
4450;SDS011;2238;50.180;9.230;2022-07-30T08:27:46;15.03;;;13.60;;
4450;SDS011;2238;50.180;9.230;2022-07-30T08:30:46;14.57;;;13.30;;
4450;SDS011;2238;50.180;9.230;2022-07-30T08:33:48;17.47;;;12.80;;
4450;SDS011;2238;50.180;9.230;2022-07-30T08:36:49;12.40;;;11.20;;
4450;SDS011;2238;50.180;9.230;2022-07-30T08:39:49;14.90;;;13.60;;
4450;SDS011;2238;50.180;9.230;2022-07-30T08:42:51;14.83;;;13.47;;
4450;SDS011;2238;50.180;9.230;2022-07-30T08:45:52;15.53;;;13.80;;
4450;SDS011;2238;50.180;9.230;2022-07-30T08:48:55;16.30;;;14.90;;
4450;SDS011;2238;50.180;9.230;2022-07-30T08:51:56;14.50;;;13.10;;
4450;SDS011;2238;50.180;9.230;2022-07-30T08:54:57;15.90;;;14.50;;
4450;SDS011;2238;50.180;9.230;2022-07-30T08:57:59;15.17;;;13.67;;
4450;SDS011;2238;50.180;9.230;2022-07-30T09:01:00;15.30;;;14.00;;
4450;SDS011;2238;50.180;9.230;2022-07-30T09:04:02;12.80;;;11.60;;
4450;SDS011;2238;50.180;9.230;2022-07-30T09:07:02;14.13;;;12.83;;
4450;SDS011;2238;50.180;9.230;2022-07-30T09:10:03;16.13;;;14.73;;
4450;SDS011;2238;50.180;9.230;2022-07-30T09:13:05;15.47;;;13.70;;
4450;SDS011;2238;50.180;9.230;2022-07-30T09:16:34;13.87;;;12.47;;
4450;SDS011;2238;50.180;9.230;2022-07-30T09:19:35;14.90;;;12.97;;
4450;SDS011;2238;50.180;9.230;2022-07-30T09:22:43;14.37;;;12.77;;
4450;SDS011;2238;50.180;9.230;2022-07-30T09:25:48;14.80;;;12.63;;
4450;SDS011;2238;50.180;9.230;2022-07-30T09:28:50;14.57;;;13.17;;
4450;SDS011;2238;50.180;9.230;2022-07-30T09:32:01;12.00;;;11.00;;
4450;SDS011;2238;50.180;9.230;2022-07-30T09:35:12;13.20;;;11.83;;
4450;SDS011;2238;50.180;9.230;2022-07-30T09:38:13;12.80;;;10.80;;
4450;SDS011;2238;50.180;9.230;2022-07-30T09:41:15;11.93;;;10.83;;
4450;SDS011;2238;50.180;9.230;2022-07-30T09:44:24;10.50;;;9.50;;
4450;SDS011;2238;50.180;9.230;2022-07-30T09:47:44;15.83;;;8.87;;
4450;SDS011;2238;50.180;9.230;2022-07-30T09:50:48;8.20;;;7.47;;
4450;SDS011;2238;50.180;9.230;2022-07-30T09:53:53;9.73;;;8.83;;
4450;SDS011;2238;50.180;9.230;2022-07-30T09:57:02;11.70;;;10.50;;
4450;SDS011;2238;50.180;9.230;2022-07-30T10:00:16;10.90;;;9.30;;
4450;SDS011;2238;50.180;9.230;2022-07-30T10:03:22;10.20;;;9.27;;
4450;SDS011;2238;50.180;9.230;2022-07-30T10:06:31;12.03;;;9.70;;
4450;SDS011;2238;50.180;9.230;2022-07-30T10:09:33;10.30;;;8.47;;
4450;SDS011;2238;50.180;9.230;2022-07-30T10:12:35;8.13;;;7.50;;
4450;SDS011;2238;50.180;9.230;2022-07-30T10:36:14;6.80;;;6.20;;
4450;SDS011;2238;50.180;9.230;2022-07-30T10:39:17;9.33;;;7.20;;
4450;SDS011;2238;50.180;9.230;2022-07-30T10:45:40;8.93;;;6.13;;
4450;SDS011;2238;50.180;9.230;2022-07-30T10:48:48;6.13;;;5.60;;
4450;SDS011;2238;50.180;9.230;2022-07-30T10:51:50;7.50;;;6.47;;
4450;SDS011;2238;50.180;9.230;2022-07-30T10:54:53;7.53;;;5.90;;
4450;SDS011;2238;50.180;9.230;2022-07-30T11:01:05;7.43;;;6.73;;
4450;SDS011;2238;50.180;9.230;2022-07-30T11:04:16;6.57;;;6.07;;
4450;SDS011;2238;50.180;9.230;2022-07-30T11:10:37;6.30;;;5.73;;
4450;SDS011;2238;50.180;9.230;2022-07-30T11:26:45;9.53;;;6.13;;
4450;SDS011;2238;50.180;9.230;2022-07-30T11:29:47;7.53;;;5.33;;
4450;SDS011;2238;50.180;9.230;2022-07-30T11:32:51;5.90;;;5.37;;
4450;SDS011;2238;50.180;9.230;2022-07-30T11:36:06;8.53;;;5.50;;
4450;SDS011;2238;50.180;9.230;2022-07-30T11:39:08;6.40;;;5.50;;
4450;SDS011;2238;50.180;9.230;2022-07-30T11:45:25;6.20;;;4.90;;
4450;SDS011;2238;50.180;9.230;2022-07-30T11:48:28;5.80;;;5.30;;
4450;SDS011;2238;50.180;9.230;2022-07-30T11:51:38;7.07;;;6.47;;
4450;SDS011;2238;50.180;9.230;2022-07-30T11:54:50;5.90;;;5.30;;
4450;SDS011;2238;50.180;9.230;2022-07-30T11:57:53;6.50;;;6.00;;
4450;SDS011;2238;50.180;9.230;2022-07-30T12:00:56;6.93;;;6.20;;
4450;SDS011;2238;50.180;9.230;2022-07-30T12:04:05;7.07;;;5.87;;
4450;SDS011;2238;50.180;9.230;2022-07-30T12:07:07;5.60;;;5.20;;
4450;SDS011;2238;50.180;9.230;2022-07-30T12:10:15;6.93;;;6.33;;
4450;SDS011;2238;50.180;9.230;2022-07-30T12:13:17;7.30;;;6.50;;
4450;SDS011;2238;50.180;9.230;2022-07-30T12:16:18;8.30;;;7.40;;
4450;SDS011;2238;50.180;9.230;2022-07-30T12:19:19;6.53;;;6.03;;
4450;SDS011;2238;50.180;9.230;2022-07-30T12:22:20;7.50;;;6.47;;
4450;SDS011;2238;50.180;9.230;2022-07-30T12:25:20;6.10;;;5.70;;
4450;SDS011;2238;50.180;9.230;2022-07-30T12:31:25;6.10;;;5.50;;
4450;SDS011;2238;50.180;9.230;2022-07-30T12:34:26;6.33;;;5.80;;
4450;SDS011;2238;50.180;9.230;2022-07-30T12:37:27;7.57;;;6.17;;
4450;SDS011;2238;50.180;9.230;2022-07-30T12:40:28;7.60;;;6.40;;
4450;SDS011;2238;50.180;9.230;2022-07-30T12:43:41;7.30;;;6.70;;
4450;SDS011;2238;50.180;9.230;2022-07-30T12:46:45;6.23;;;5.83;;
4450;SDS011;2238;50.180;9.230;2022-07-30T12:49:46;6.90;;;6.40;;
4450;SDS011;2238;50.180;9.230;2022-07-30T12:52:48;11.17;;;6.53;;
4450;SDS011;2238;50.180;9.230;2022-07-30T12:55:52;7.20;;;6.40;;
4450;SDS011;2238;50.180;9.230;2022-07-30T12:58:54;7.13;;;6.40;;
4450;SDS011;2238;50.180;9.230;2022-07-30T13:01:56;10.33;;;7.00;;
4450;SDS011;2238;50.180;9.230;2022-07-30T13:04:59;7.83;;;7.13;;
4450;SDS011;2238;50.180;9.230;2022-07-30T13:08:01;6.30;;;5.77;;
4450;SDS011;2238;50.180;9.230;2022-07-30T13:11:02;7.20;;;6.70;;
4450;SDS011;2238;50.180;9.230;2022-07-30T13:14:03;6.90;;;6.30;;
4450;SDS011;2238;50.180;9.230;2022-07-30T13:17:04;6.37;;;5.87;;
4450;SDS011;2238;50.180;9.230;2022-07-30T13:20:06;6.07;;;5.67;;
4450;SDS011;2238;50.180;9.230;2022-07-30T13:23:07;7.37;;;6.77;;
4450;SDS011;2238;50.180;9.230;2022-07-30T13:26:08;7.30;;;6.70;;
4450;SDS011;2238;50.180;9.230;2022-07-30T13:29:09;7.20;;;6.60;;
4450;SDS011;2238;50.180;9.230;2022-07-30T13:32:12;7.03;;;6.43;;
4450;SDS011;2238;50.180;9.230;2022-07-30T13:35:12;8.07;;;6.50;;
4450;SDS011;2238;50.180;9.230;2022-07-30T13:38:14;7.50;;;6.90;;
4450;SDS011;2238;50.180;9.230;2022-07-30T13:41:14;7.67;;;7.07;;
4450;SDS011;2238;50.180;9.230;2022-07-30T13:44:17;6.67;;;6.17;;
4450;SDS011;2238;50.180;9.230;2022-07-30T13:47:18;7.10;;;6.60;;
4450;SDS011;2238;50.180;9.230;2022-07-30T13:50:19;6.60;;;6.10;;
4450;SDS011;2238;50.180;9.230;2022-07-30T13:53:19;7.17;;;6.53;;
4450;SDS011;2238;50.180;9.230;2022-07-30T13:56:20;7.07;;;6.50;;
4450;SDS011;2238;50.180;9.230;2022-07-30T13:59:21;7.10;;;6.43;;
4450;SDS011;2238;50.180;9.230;2022-07-30T14:02:21;7.60;;;6.23;;
4450;SDS011;2238;50.180;9.230;2022-07-30T14:05:22;7.70;;;7.07;;
4450;SDS011;2238;50.180;9.230;2022-07-30T14:08:23;8.13;;;7.50;;
4450;SDS011;2238;50.180;9.230;2022-07-30T14:11:24;6.37;;;5.87;;
4450;SDS011;2238;50.180;9.230;2022-07-30T14:14:25;7.13;;;6.53;;
4450;SDS011;2238;50.180;9.230;2022-07-30T14:17:25;6.60;;;6.10;;
4450;SDS011;2238;50.180;9.230;2022-07-30T14:20:26;7.27;;;6.67;;
4450;SDS011;2238;50.180;9.230;2022-07-30T14:23:27;6.43;;;5.93;;
4450;SDS011;2238;50.180;9.230;2022-07-30T14:26:29;7.27;;;6.73;;
4450;SDS011;2238;50.180;9.230;2022-07-30T14:29:30;6.27;;;5.87;;
4450;SDS011;2238;50.180;9.230;2022-07-30T14:32:31;6.57;;;6.17;;
4450;SDS011;2238;50.180;9.230;2022-07-30T14:35:33;6.67;;;6.07;;
4450;SDS011;2238;50.180;9.230;2022-07-30T14:38:33;10.73;;;7.43;;
4450;SDS011;2238;50.180;9.230;2022-07-30T14:41:34;6.97;;;6.37;;
4450;SDS011;2238;50.180;9.230;2022-07-30T14:44:36;7.50;;;7.00;;
4450;SDS011;2238;50.180;9.230;2022-07-30T14:47:37;7.67;;;7.13;;
4450;SDS011;2238;50.180;9.230;2022-07-30T14:50:39;6.90;;;6.50;;
4450;SDS011;2238;50.180;9.230;2022-07-30T14:53:39;7.53;;;6.87;;
4450;SDS011;2238;50.180;9.230;2022-07-30T14:56:40;7.93;;;7.23;;
4450;SDS011;2238;50.180;9.230;2022-07-30T14:59:41;7.27;;;6.57;;
4450;SDS011;2238;50.180;9.230;2022-07-30T15:02:41;7.67;;;7.07;;
4450;SDS011;2238;50.180;9.230;2022-07-30T15:05:42;7.83;;;6.87;;
4450;SDS011;2238;50.180;9.230;2022-07-30T15:08:43;7.07;;;6.67;;
4450;SDS011;2238;50.180;9.230;2022-07-30T15:11:45;7.63;;;6.97;;
4450;SDS011;2238;50.180;9.230;2022-07-30T15:14:45;6.87;;;6.33;;
4450;SDS011;2238;50.180;9.230;2022-07-30T15:17:48;8.60;;;7.80;;
4450;SDS011;2238;50.180;9.230;2022-07-30T15:20:48;8.37;;;7.60;;
4450;SDS011;2238;50.180;9.230;2022-07-30T15:23:49;7.50;;;7.00;;
4450;SDS011;2238;50.180;9.230;2022-07-30T15:26:50;6.60;;;6.20;;
4450;SDS011;2238;50.180;9.230;2022-07-30T15:29:50;8.87;;;6.20;;
4450;SDS011;2238;50.180;9.230;2022-07-30T15:32:51;6.53;;;6.03;;
4450;SDS011;2238;50.180;9.230;2022-07-30T15:35:53;6.20;;;5.80;;
4450;SDS011;2238;50.180;9.230;2022-07-30T15:38:53;6.00;;;5.60;;
4450;SDS011;2238;50.180;9.230;2022-07-30T15:41:55;7.40;;;6.30;;
4450;SDS011;2238;50.180;9.230;2022-07-30T15:44:56;6.53;;;6.03;;
4450;SDS011;2238;50.180;9.230;2022-07-30T15:47:56;6.97;;;5.90;;
4450;SDS011;2238;50.180;9.230;2022-07-30T15:51:00;5.93;;;5.20;;
4450;SDS011;2238;50.180;9.230;2022-07-30T15:54:02;6.00;;;5.50;;
4450;SDS011;2238;50.180;9.230;2022-07-30T15:57:03;6.33;;;5.80;;
4450;SDS011;2238;50.180;9.230;2022-07-30T16:00:04;7.03;;;5.73;;
4450;SDS011;2238;50.180;9.230;2022-07-30T16:03:07;5.50;;;5.07;;
4450;SDS011;2238;50.180;9.230;2022-07-30T16:06:07;5.73;;;5.23;;
4450;SDS011;2238;50.180;9.230;2022-07-30T16:09:08;4.90;;;4.50;;
4450;SDS011;2238;50.180;9.230;2022-07-30T16:12:09;5.63;;;4.07;;
4450;SDS011;2238;50.180;9.230;2022-07-30T16:15:09;6.10;;;4.43;;
4450;SDS011;2238;50.180;9.230;2022-07-30T16:18:10;5.07;;;4.60;;
4450;SDS011;2238;50.180;9.230;2022-07-30T16:21:11;4.93;;;4.60;;
4450;SDS011;2238;50.180;9.230;2022-07-30T16:24:11;5.33;;;4.80;;
4450;SDS011;2238;50.180;9.230;2022-07-30T16:27:12;4.77;;;4.37;;
4450;SDS011;2238;50.180;9.230;2022-07-30T16:30:13;4.37;;;4.07;;
4450;SDS011;2238;50.180;9.230;2022-07-30T16:33:14;4.20;;;3.87;;
4450;SDS011;2238;50.180;9.230;2022-07-30T16:36:15;4.10;;;3.80;;
4450;SDS011;2238;50.180;9.230;2022-07-30T16:39:16;5.13;;;3.90;;
4450;SDS011;2238;50.180;9.230;2022-07-30T16:42:16;4.17;;;3.87;;
4450;SDS011;2238;50.180;9.230;2022-07-30T16:45:17;4.60;;;4.20;;
4450;SDS011;2238;50.180;9.230;2022-07-30T16:48:18;4.50;;;4.00;;
4450;SDS011;2238;50.180;9.230;2022-07-30T16:51:19;4.80;;;4.50;;
4450;SDS011;2238;50.180;9.230;2022-07-30T16:54:19;4.87;;;4.50;;
4450;SDS011;2238;50.180;9.230;2022-07-30T16:57:20;4.50;;;4.10;;
4450;SDS011;2238;50.180;9.230;2022-07-30T17:00:20;4.13;;;3.83;;
4450;SDS011;2238;50.180;9.230;2022-07-30T17:03:21;3.90;;;3.70;;
4450;SDS011;2238;50.180;9.230;2022-07-30T17:06:24;4.13;;;3.83;;
4450;SDS011;2238;50.180;9.230;2022-07-30T17:09:24;3.77;;;3.47;;
4450;SDS011;2238;50.180;9.230;2022-07-30T17:12:25;5.03;;;3.87;;
4450;SDS011;2238;50.180;9.230;2022-07-30T17:15:26;3.93;;;3.73;;
4450;SDS011;2238;50.180;9.230;2022-07-30T17:18:27;4.47;;;4.00;;
4450;SDS011;2238;50.180;9.230;2022-07-30T17:21:28;4.10;;;3.67;;
4450;SDS011;2238;50.180;9.230;2022-07-30T17:24:28;4.30;;;4.00;;
4450;SDS011;2238;50.180;9.230;2022-07-30T17:27:29;4.97;;;4.10;;
4450;SDS011;2238;50.180;9.230;2022-07-30T17:30:30;4.40;;;3.90;;
4450;SDS011;2238;50.180;9.230;2022-07-30T17:33:31;4.40;;;4.00;;
4450;SDS011;2238;50.180;9.230;2022-07-30T17:36:31;3.87;;;3.57;;
4450;SDS011;2238;50.180;9.230;2022-07-30T17:39:32;4.77;;;4.13;;
4450;SDS011;2238;50.180;9.230;2022-07-30T17:42:33;6.60;;;4.23;;
4450;SDS011;2238;50.180;9.230;2022-07-30T17:45:35;4.60;;;4.17;;
4450;SDS011;2238;50.180;9.230;2022-07-30T17:48:36;5.90;;;4.87;;
4450;SDS011;2238;50.180;9.230;2022-07-30T17:51:36;4.23;;;3.93;;
4450;SDS011;2238;50.180;9.230;2022-07-30T17:54:38;7.40;;;6.83;;
4450;SDS011;2238;50.180;9.230;2022-07-30T17:57:39;5.10;;;4.60;;
4450;SDS011;2238;50.180;9.230;2022-07-30T18:00:40;4.50;;;4.10;;
4450;SDS011;2238;50.180;9.230;2022-07-30T18:03:40;4.47;;;4.17;;
4450;SDS011;2238;50.180;9.230;2022-07-30T18:06:41;3.93;;;3.63;;
4450;SDS011;2238;50.180;9.230;2022-07-30T18:09:42;4.10;;;3.80;;
4450;SDS011;2238;50.180;9.230;2022-07-30T18:12:42;4.87;;;4.20;;
4450;SDS011;2238;50.180;9.230;2022-07-30T18:15:43;5.50;;;5.00;;
4450;SDS011;2238;50.180;9.230;2022-07-30T18:18:44;4.30;;;3.97;;
4450;SDS011;2238;50.180;9.230;2022-07-30T18:21:44;4.50;;;4.07;;
4450;SDS011;2238;50.180;9.230;2022-07-30T18:24:45;4.50;;;4.20;;
4450;SDS011;2238;50.180;9.230;2022-07-30T18:27:47;5.00;;;4.60;;
4450;SDS011;2238;50.180;9.230;2022-07-30T18:30:50;7.53;;;5.30;;
4450;SDS011;2238;50.180;9.230;2022-07-30T18:33:51;6.60;;;5.90;;
4450;SDS011;2238;50.180;9.230;2022-07-30T18:36:51;7.60;;;5.70;;
4450;SDS011;2238;50.180;9.230;2022-07-30T18:39:52;6.67;;;5.97;;
4450;SDS011;2238;50.180;9.230;2022-07-30T18:42:52;7.57;;;6.90;;
4450;SDS011;2238;50.180;9.230;2022-07-30T18:45:54;7.00;;;6.40;;
4450;SDS011;2238;50.180;9.230;2022-07-30T18:48:56;7.63;;;6.93;;
4450;SDS011;2238;50.180;9.230;2022-07-30T18:51:57;5.70;;;5.30;;
4450;SDS011;2238;50.180;9.230;2022-07-30T18:55:00;8.33;;;6.50;;
4450;SDS011;2238;50.180;9.230;2022-07-30T18:58:01;6.50;;;6.00;;
4450;SDS011;2238;50.180;9.230;2022-07-30T19:01:01;7.40;;;6.70;;
4450;SDS011;2238;50.180;9.230;2022-07-30T19:04:02;6.90;;;6.40;;
4450;SDS011;2238;50.180;9.230;2022-07-30T19:07:02;11.70;;;8.67;;
4450;SDS011;2238;50.180;9.230;2022-07-30T19:10:04;7.50;;;6.80;;
4450;SDS011;2238;50.180;9.230;2022-07-30T19:13:05;9.97;;;8.10;;
4450;SDS011;2238;50.180;9.230;2022-07-30T19:16:06;8.13;;;7.37;;
4450;SDS011;2238;50.180;9.230;2022-07-30T19:19:07;21.77;;;15.60;;
4450;SDS011;2238;50.180;9.230;2022-07-30T19:22:08;22.10;;;18.63;;
4450;SDS011;2238;50.180;9.230;2022-07-30T19:25:09;21.80;;;14.40;;
4450;SDS011;2238;50.180;9.230;2022-07-30T19:28:10;9.00;;;8.10;;
4450;SDS011;2238;50.180;9.230;2022-07-30T19:31:14;10.07;;;9.13;;